METAR Data
IDs: Format: Raw Decoded Include TAF

Data at: 1525 UTC 22 Apr 2021

LQSA 221500Z 24005KT 190V280 CAVOK 15/00 Q1017 NOSIG